EGNR/CEG METAR and TAF weather

Enter ICAO airport designator
Station Type Date Time Source
EGNR METAR 2018/01/16 09:20 UTC NOAA

EGNR 160920Z 26015KT 9999 FEW012 SCT024 05/M01 Q0993


Station Type Date Time Source
EGNR Decoded METAR 2018/01/16 09:20 UTC NOAA

Hawarden, United Kingdom (EGNR) 53-10N 002-59W 0M
Jan 16, 2018 - 04:20 AM EST / 2018.01.16 0920 UTC
Wind: from the W (260 degrees) at 17 MPH (15 KT):0
Visibility: greater than 7 mile(s):0
Sky conditions: partly cloudy
Temperature: 41 F (5 C)
Dew Point: 30 F (-1 C)
Relative Humidity: 65%
Pressure (altimeter): 29.32 in. Hg (0993 hPa)
ob: EGNR 160920Z 26015KT 9999 FEW012 SCT024 05/M01 Q0993
cycle: 9

Station Type Date Time Source
EGNR TAF 2016/01/23 12:00 UTC NOAA

TAF EGNR 231059Z 2312/2319 15009KT 9999 FEW020
BECMG 2316/2319 BKN014
TEMPO 2317/2319 6000 RA BKN008


Example: see airport list